Sunday, January 21, 2018, 8:35 PM GMT
Back to Local

CWQP, Point Petre , Ont.

Location: , , Canada Lat: 43.833
Local Time: 8:35 PM GMT (20:35 GMT) Lon: -77.15
Time Zone: GMT Elev: 259 ft

Show me the last for .
Show Decoded

2018-01-21 20:00 METAR CWQP 212000Z AUTO 12002KT 02/M01 RMK AO1 SOG 12 6008 SLP196 T00151008 =
2018-01-21 19:00 METAR CWQP 211900Z AUTO 18003KT 02/M01 RMK AO1 SOG 12 6013 SLP196 T00211009 =
2018-01-21 18:00 METAR CWQP 211800Z AUTO 19003KT 02/M01 RMK AO1 SOG 12 8009 SLP199 T00221007 =
2018-01-21 17:00 METAR CWQP 211700Z AUTO 20007KT 01/M01 RMK AO1 SOG 12 8002 SLP204 T00141006 =
2018-01-21 15:00 METAR CWQP 211500Z AUTO 25005KT 01/M00 RMK AO1 SOG 12 1007 SLP208 T00101001 =
2018-01-21 14:00 METAR CWQP 211400Z AUTO 25005KT M00/M01 RMK AO1 SOG 12 1011 SLP206 T10031006 =
2018-01-21 13:00 METAR CWQP 211300Z AUTO 26004KT 00/M01 RMK AO1 SOG 12 1016 SLP204 T00001007 =
2018-01-21 12:00 METAR CWQP 211200Z AUTO 29008KT M00/M01 RMK AO1 SOG 12 3015 SLP201 T10021009 =
2018-01-21 11:00 METAR CWQP 211100Z AUTO 27008KT M00/M01 RMK AO1 SOG 12 3011 SLP195 T10021006 =
2018-01-21 10:00 METAR CWQP 211000Z AUTO 28006KT M00/01 RMK AO1 SOG 12 1013 SLP188 T10020005 =
2018-01-21 09:00 METAR CWQP 210900Z AUTO 28006KT M00/M01 RMK AO1 SOG 12 3012 SLP186 T10011007 =
2018-01-21 08:00 METAR CWQP 210800Z AUTO 30006KT M00/M01 RMK AO1 SOG 13 3015 SLP184 T10011008 =
2018-01-21 07:00 METAR CWQP 210700Z AUTO 27006KT 01/M00 RMK AO1 SOG 13 1011 SLP175 T00061004 =
2018-01-21 06:00 METAR CWQP 210600Z AUTO 28007KT 01/M01 RMK AO1 SOG 13 1016 SLP174 T00061007 =
2018-01-21 05:00 METAR CWQP 210500Z AUTO 28013KT 01/01 RMK AO1 SOG 13 3010 SLP168 T00100005 =
2018-01-21 04:00 METAR CWQP 210400Z AUTO 26010G15KT 01/M01 RMK AO1 SOG 13 2011 SLP163 T00101007 =
2018-01-21 03:00 METAR CWQP 210300Z AUTO 26012KT 01/M01 RMK AO1 SOG 13 0007 SLP157 T00111008 =
2018-01-21 02:00 METAR CWQP 210200Z AUTO 25012KT 01/M01 RMK AO1 SOG 13 1020 PK WND 25017/0109
                 SLP158 T00131008 =
2018-01-21 01:00 METAR CWQP 210100Z AUTO 25015KT 01/M01 RMK AO1 SOG 13 1017 PK WND 25017/0052
                 SLP152 T00141007 =
2018-01-21 00:00 METAR CWQP 210000Z AUTO 25013KT 01/M01 RMK AO1 SOG 13 3025 PK WND 25019/2321
                 SLP150 T00111007 =
2018-01-20 23:00 METAR CWQP 202300Z AUTO 25017KT 02/M01 RMK AO1 SOG 13 1026 PK WND 25019/2258
                 SLP138 T00151006 =
2018-01-20 22:00 METAR CWQP 202200Z AUTO 26010KT 02/M01 RMK AO1 SOG 13 3030 SLP135 T00171006 =
2018-01-20 21:00 METAR CWQP 202100Z AUTO 26011G16KT 02/M01 RMK AO1 SOG 13 3026 PK WND 25020/2006
                 SLP125 T00231008 =

Support USWX by starting your Amazon purchase here.